Time;durP1;ratioP1;P1;durP2;ratioP2;P2;SDS_P1;SDS_P2;PMS_P1;PMS_P2;Temp;Humidity;BMP_temperature;BMP_pressure;BME280_temperature;BME280_humidity;BME280_pressure;Samples;Min_cycle;Max_cycle;Signal;HPM_P1;HPM_P2
2022/06/19 00:00:39;;;;;;;6.95;1.80;;;13.50;99.90;;;;;;5079422;28;19973;-58
2022/06/19 00:03:08;;;;;;;7.03;1.88;;;13.50;99.90;;;;;;5075173;28;20048;-56
2022/06/19 00:05:36;;;;;;;8.85;1.80;;;13.50;99.90;;;;;;5080438;28;20059;-57
2022/06/19 00:08:03;;;;;;;9.30;3.17;;;13.40;99.90;;;;;;5082779;28;20076;-58
2022/06/19 00:10:29;;;;;;;5.78;2.38;;;13.40;99.90;;;;;;5075534;28;20039;-59
2022/06/19 00:12:56;;;;;;;15.20;4.13;;;13.40;99.90;;;;;;5077376;28;20093;-55
2022/06/19 00:15:23;;;;;;;6.45;1.45;;;13.40;99.90;;;;;;5084467;28;20036;-53
2022/06/19 00:17:50;;;;;;;10.00;2.10;;;13.30;99.90;;;;;;5079465;28;20181;-57
2022/06/19 00:20:16;;;;;;;6.40;1.80;;;13.30;99.90;;;;;;5073980;28;20076;-58
2022/06/19 00:22:43;;;;;;;9.38;1.88;;;13.20;99.90;;;;;;5080360;28;20053;-58
2022/06/19 00:25:10;;;;;;;7.88;1.90;;;13.20;99.90;;;;;;5073918;28;20098;-55
2022/06/19 00:27:38;;;;;;;6.57;1.30;;;13.20;99.90;;;;;;5080975;28;20094;-57
2022/06/19 00:30:09;;;;;;;7.93;1.98;;;13.20;99.90;;;;;;5082104;28;20055;-57
2022/06/19 00:32:36;;;;;;;8.55;2.35;;;13.10;99.90;;;;;;5086170;28;20371;-56
2022/06/19 00:35:04;;;;;;;6.13;1.60;;;13.10;99.90;;;;;;5086496;28;20062;-57
2022/06/19 00:37:31;;;;;;;3.92;1.20;;;13.10;99.90;;;;;;5076630;28;20044;-54
2022/06/19 00:39:58;;;;;;;5.00;1.90;;;13.10;99.90;;;;;;5079431;28;20084;-56
2022/06/19 00:42:26;;;;;;;6.25;1.30;;;13.10;99.90;;;;;;5080630;28;20048;-57
2022/06/19 00:44:53;;;;;;;9.25;1.58;;;13.00;99.90;;;;;;5079295;28;20501;-57
2022/06/19 00:47:22;;;;;;;7.68;1.90;;;13.00;99.90;;;;;;5080737;28;20624;-56
2022/06/19 00:49:54;;;;;;;7.13;1.38;;;13.00;99.90;;;;;;5074212;28;20040;-57
2022/06/19 00:52:23;;;;;;;1.85;1.15;;;13.00;99.90;;;;;;5083667;28;20075;-60
2022/06/19 00:55:00;;;;;;;8.63;1.58;;;13.00;99.90;;;;;;5074187;28;20432;-59
2022/06/19 00:57:28;;;;;;;5.47;1.77;;;12.90;99.90;;;;;;5078053;28;20488;-55
2022/06/19 01:00:00;;;;;;;4.85;1.52;;;12.90;99.90;;;;;;5068737;28;20040;-57
2022/06/19 01:02:27;;;;;;;8.93;1.42;;;12.80;99.90;;;;;;5067551;28;20052;-55
2022/06/19 01:04:54;;;;;;;6.10;1.60;;;12.80;99.90;;;;;;5080436;28;20132;-56
2022/06/19 01:07:26;;;;;;;7.10;2.97;;;12.70;99.90;;;;;;5081514;28;20571;-57
2022/06/19 01:09:53;;;;;;;8.43;1.55;;;12.80;99.90;;;;;;5080532;28;20131;-57
2022/06/19 01:12:20;;;;;;;7.85;1.83;;;12.80;99.90;;;;;;4723501;28;10000421;-53
2022/06/19 01:14:47;;;;;;;9.30;2.25;;;12.80;99.90;;;;;;5076575;28;20098;-56
2022/06/19 01:17:14;;;;;;;9.68;2.17;;;12.80;99.90;;;;;;5068183;28;20044;-55
2022/06/19 01:19:43;;;;;;;5.22;1.40;;;12.90;99.90;;;;;;5070720;28;20048;-58
2022/06/19 01:22:15;;;;;;;11.75;1.58;;;12.80;99.90;;;;;;5086483;28;20052;-56
2022/06/19 01:24:53;;;;;;;11.18;2.92;;;12.70;99.90;;;;;;5077586;28;20052;-56
2022/06/19 01:30:06;;;;;;;6.20;1.80;;;12.70;99.90;;;;;;5077636;28;20101;-57
2022/06/19 01:32:33;;;;;;;5.80;2.03;;;12.70;99.90;;;;;;5082991;28;20590;-56
2022/06/19 01:35:00;;;;;;;3.15;1.25;;;12.70;99.90;;;;;;5078511;28;20109;-54
2022/06/19 01:37:27;;;;;;;8.65;1.65;;;12.80;99.90;;;;;;5081134;28;20052;-57
2022/06/19 01:40:17;;;;;;;5.20;1.83;;;12.70;99.90;;;;;;5076186;28;20067;-56
2022/06/19 01:42:43;;;;;;;6.18;1.60;;;12.70;99.90;;;;;;5072764;28;20091;-56
2022/06/19 01:45:10;;;;;;;4.82;1.10;;;12.70;99.90;;;;;;5078164;28;20041;-58
2022/06/19 01:47:37;;;;;;;9.73;1.90;;;12.70;99.90;;;;;;5067313;28;20048;-54
2022/06/19 01:50:07;;;;;;;5.10;1.85;;;12.70;99.90;;;;;;5078808;28;20044;-57
2022/06/19 01:52:34;;;;;;;9.90;1.80;;;12.60;99.90;;;;;;5079742;28;20060;-56
2022/06/19 01:55:15;;;;;;;5.20;1.55;;;12.60;99.90;;;;;;5074348;28;20102;-57
2022/06/19 01:57:50;;;;;;;4.72;2.00;;;12.60;99.90;;;;;;5079615;28;20080;-56
2022/06/19 02:00:20;;;;;;;9.68;1.75;;;12.50;99.90;;;;;;5079478;28;20123;-55
2022/06/19 02:03:03;;;;;;;7.18;1.63;;;12.60;99.90;;;;;;5081837;28;20495;-57
2022/06/19 02:05:31;;;;;;;9.95;1.92;;;12.50;99.90;;;;;;5075501;28;20087;-55
2022/06/19 02:07:58;;;;;;;8.48;2.40;;;12.60;99.90;;;;;;5080150;28;20066;-55
2022/06/19 02:10:25;;;;;;;6.18;1.73;;;12.60;99.90;;;;;;5072880;28;20052;-54
2022/06/19 02:12:52;;;;;;;6.43;2.72;;;12.60;99.90;;;;;;5082359;28;20092;-55
2022/06/19 02:15:19;;;;;;;11.05;2.08;;;12.60;99.90;;;;;;5083125;28;20090;-57
2022/06/19 02:17:49;;;;;;;9.40;1.42;;;12.60;99.90;;;;;;5093904;28;20047;-57
2022/06/19 02:20:17;;;;;;;6.38;1.63;;;12.60;99.90;;;;;;5080191;28;20476;-56
2022/06/19 02:22:43;;;;;;;5.10;2.03;;;12.70;99.90;;;;;;5085359;28;20083;-56
2022/06/19 02:25:10;;;;;;;5.53;1.55;;;12.70;99.90;;;;;;5079607;28;20123;-55
2022/06/19 02:27:37;;;;;;;10.95;2.20;;;12.70;99.90;;;;;;5069984;28;20139;-57
2022/06/19 02:30:05;;;;;;;4.82;1.52;;;12.70;99.90;;;;;;5086346;28;20051;-55
2022/06/19 02:32:38;;;;;;;8.70;1.98;;;12.70;99.90;;;;;;5078143;28;20374;-57
2022/06/19 02:35:15;;;;;;;7.65;2.28;;;12.70;99.90;;;;;;5073441;28;20048;-55
2022/06/19 02:37:46;;;;;;;9.13;1.70;;;12.70;99.90;;;;;;5087516;28;20044;-56
2022/06/19 02:40:34;;;;;;;8.35;1.92;;;12.60;99.90;;;;;;5086782;28;20086;-59
2022/06/19 02:43:01;;;;;;;9.48;2.08;;;12.60;99.90;;;;;;5081664;28;20068;-57
2022/06/19 02:45:30;;;;;;;11.38;3.53;;;12.60;99.90;;;;;;5075875;28;20087;-57
2022/06/19 02:47:58;;;;;;;13.10;2.70;;;12.60;99.90;;;;;;5078788;28;20060;-57
2022/06/19 02:50:30;;;;;;;10.02;2.10;;;12.50;99.90;;;;;;5086248;28;20078;-55
2022/06/19 02:52:57;;;;;;;8.88;2.75;;;12.50;99.90;;;;;;5081471;28;20447;-56
2022/06/19 02:55:24;;;;;;;7.30;2.20;;;12.50;99.90;;;;;;5089880;28;20270;-57
2022/06/19 02:57:51;;;;;;;11.68;2.50;;;12.60;99.90;;;;;;5080344;28;20090;-57
2022/06/19 03:00:23;;;;;;;12.80;2.28;;;12.60;99.90;;;;;;5085383;28;20093;-56
2022/06/19 03:02:50;;;;;;;11.93;2.65;;;12.60;99.90;;;;;;5078769;28;20143;-57
2022/06/19 03:05:19;;;;;;;14.05;5.00;;;12.70;99.90;;;;;;5070189;28;20057;-54
2022/06/19 03:07:46;;;;;;;12.20;2.15;;;12.70;99.90;;;;;;5086439;28;20071;-57
2022/06/19 03:10:13;;;;;;;8.02;1.95;;;12.70;99.90;;;;;;5078737;28;20487;-55
2022/06/19 03:12:40;;;;;;;5.38;1.90;;;12.70;99.90;;;;;;5082249;28;20071;-57
2022/06/19 03:15:07;;;;;;;12.32;3.20;;;12.60;99.90;;;;;;5080664;28;20131;-58
2022/06/19 03:17:34;;;;;;;7.32;2.15;;;12.60;99.90;;;;;;5078028;28;20075;-55
2022/06/19 03:20:01;;;;;;;10.75;3.65;;;12.70;99.90;;;;;;5083146;28;20626;-57
2022/06/19 03:22:27;;;;;;;8.90;2.80;;;12.70;99.90;;;;;;5081930;28;20090;-55
2022/06/19 03:24:54;;;;;;;9.93;2.10;;;12.70;99.90;;;;;;5076816;28;20490;-56
2022/06/19 03:27:21;;;;;;;8.07;1.98;;;12.70;99.90;;;;;;5081659;28;20132;-55
2022/06/19 03:29:49;;;;;;;7.45;2.17;;;12.70;99.90;;;;;;5084268;28;20090;-55
2022/06/19 03:32:15;;;;;;;9.82;2.80;;;12.70;99.90;;;;;;5077196;28;20076;-55
2022/06/19 03:34:42;;;;;;;9.10;2.33;;;12.80;99.90;;;;;;5081478;28;20115;-57
2022/06/19 03:37:09;;;;;;;9.85;3.22;;;12.80;99.90;;;;;;5074494;28;20087;-57
2022/06/19 03:39:36;;;;;;;13.73;2.70;;;12.80;99.90;;;;;;5081185;28;20495;-57
2022/06/19 03:42:03;;;;;;;16.25;3.42;;;12.80;99.90;;;;;;5075030;28;20079;-54
2022/06/19 03:44:30;;;;;;;10.68;2.75;;;12.80;99.90;;;;;;5076871;28;20094;-57
2022/06/19 03:46:57;;;;;;;14.48;3.80;;;12.70;99.90;;;;;;5075598;28;20071;-57
2022/06/19 03:49:26;;;;;;;13.35;2.42;;;12.80;99.90;;;;;;5081825;28;20468;-57
2022/06/19 03:51:53;;;;;;;11.25;2.47;;;12.80;99.90;;;;;;5083178;28;20067;-55
2022/06/19 03:54:20;;;;;;;17.20;4.30;;;12.80;99.90;;;;;;5079052;28;20044;-58
2022/06/19 03:56:46;;;;;;;15.00;2.75;;;12.80;99.90;;;;;;5076788;28;20088;-57
2022/06/19 03:59:13;;;;;;;16.00;2.67;;;12.80;99.90;;;;;;5083019;28;20075;-58
2022/06/19 04:01:42;;;;;;;8.13;2.17;;;12.70;99.90;;;;;;5080303;28;20079;-57
2022/06/19 04:04:10;;;;;;;5.50;2.08;;;12.80;99.90;;;;;;5082588;28;20052;-57
2022/06/19 04:06:40;;;;;;;10.60;2.40;;;12.80;99.90;;;;;;5077608;28;20094;-55
2022/06/19 04:09:08;;;;;;;18.42;2.78;;;12.80;99.90;;;;;;5082235;28;20083;-57
2022/06/19 04:11:34;;;;;;;10.60;2.55;;;12.80;99.90;;;;;;5074579;28;20044;-56
2022/06/19 04:14:02;;;;;;;16.73;2.85;;;12.80;99.90;;;;;;5080026;28;20091;-57
2022/06/19 04:16:30;;;;;;;12.20;4.13;;;12.80;99.90;;;;;;5083411;28;20076;-56
2022/06/19 04:18:58;;;;;;;10.63;3.17;;;12.80;99.90;;;;;;5077058;28;20040;-56
2022/06/19 04:21:27;;;;;;;10.20;2.35;;;12.90;99.90;;;;;;5075709;28;20119;-57
2022/06/19 04:23:55;;;;;;;9.75;2.83;;;12.80;99.90;;;;;;5083585;28;20182;-51
2022/06/19 04:26:24;;;;;;;18.50;4.20;;;12.90;99.90;;;;;;5082099;28;20076;-57
2022/06/19 04:28:50;;;;;;;12.77;2.55;;;12.90;99.90;;;;;;5070797;28;20138;-58
2022/06/19 04:31:17;;;;;;;14.48;2.65;;;12.90;99.90;;;;;;5086947;28;20098;-56
2022/06/19 04:33:44;;;;;;;13.68;2.58;;;12.90;99.90;;;;;;5076466;28;20094;-57
2022/06/19 04:36:18;;;;;;;19.08;3.83;;;12.90;99.90;;;;;;5088849;28;20644;-55
2022/06/19 04:38:46;;;;;;;14.15;3.17;;;12.90;99.90;;;;;;5083884;28;20479;-56
2022/06/19 04:41:18;;;;;;;8.85;2.75;;;13.00;99.90;;;;;;5078138;28;20463;-56
2022/06/19 04:43:44;;;;;;;10.30;2.28;;;13.00;99.90;;;;;;5078785;28;20072;-56
2022/06/19 04:46:11;;;;;;;12.60;2.78;;;13.00;99.90;;;;;;5078223;28;20068;-57
2022/06/19 04:48:38;;;;;;;12.35;2.60;;;13.00;99.90;;;;;;5076015;28;20052;-58
2022/06/19 04:51:05;;;;;;;18.85;3.42;;;13.00;99.90;;;;;;5080649;28;20068;-58
2022/06/19 04:53:32;;;;;;;20.90;3.25;;;12.90;99.90;;;;;;5078965;28;20127;-58
2022/06/19 04:55:59;;;;;;;13.05;2.33;;;12.90;99.90;;;;;;5076226;28;20403;-57
2022/06/19 04:58:26;;;;;;;9.65;2.55;;;13.00;99.90;;;;;;5078727;28;20083;-55
2022/06/19 05:00:53;;;;;;;21.42;3.30;;;13.00;99.90;;;;;;5081583;28;20051;-57
2022/06/19 05:03:21;;;;;;;14.82;2.47;;;13.00;99.90;;;;;;5072713;28;20408;-55
2022/06/19 05:05:48;;;;;;;10.00;2.38;;;12.90;99.90;;;;;;5077612;28;20196;-56
2022/06/19 05:08:16;;;;;;;13.20;2.90;;;13.00;99.90;;;;;;5073651;28;20188;-57
2022/06/19 05:10:43;;;;;;;14.10;3.25;;;13.00;99.90;;;;;;5080245;28;20054;-53
2022/06/19 05:13:17;;;;;;;11.25;2.25;;;13.00;99.90;;;;;;5082300;28;20127;-54
2022/06/19 05:15:45;;;;;;;13.50;4.38;;;12.90;99.90;;;;;;5075339;28;20079;-58
2022/06/19 05:18:12;;;;;;;23.10;5.00;;;13.00;99.90;;;;;;5074991;28;20044;-57
2022/06/19 05:20:39;;;;;;;13.00;2.40;;;13.00;99.90;;;;;;5084038;28;20711;-57
2022/06/19 05:23:06;;;;;;;10.25;2.83;;;13.00;99.90;;;;;;5080057;28;20079;-57
2022/06/19 05:25:33;;;;;;;11.52;2.35;;;13.00;99.90;;;;;;5073622;28;20074;-57
2022/06/19 05:28:00;;;;;;;11.93;2.65;;;13.00;99.90;;;;;;5078818;28;20045;-56
2022/06/19 05:30:27;;;;;;;8.57;1.90;;;13.10;99.90;;;;;;5083572;28;20056;-59
2022/06/19 05:32:54;;;;;;;13.07;3.92;;;13.10;99.90;;;;;;5077083;28;20955;-56
2022/06/19 05:35:21;;;;;;;14.32;3.20;;;13.10;99.90;;;;;;5080305;28;20054;-57
2022/06/19 05:37:47;;;;;;;9.80;3.17;;;13.10;99.90;;;;;;5079790;28;20131;-57
2022/06/19 05:40:14;;;;;;;13.27;2.17;;;13.10;99.90;;;;;;5079202;28;20048;-56
2022/06/19 05:42:41;;;;;;;9.52;2.50;;;13.10;99.90;;;;;;5080893;28;20051;-56
2022/06/19 05:45:08;;;;;;;11.43;2.53;;;13.10;99.90;;;;;;5075433;28;20131;-56
2022/06/19 05:47:35;;;;;;;12.80;2.95;;;13.10;99.90;;;;;;5081004;28;20055;-56
2022/06/19 05:50:02;;;;;;;11.43;2.60;;;13.10;99.90;;;;;;5076095;28;20094;-58
2022/06/19 05:52:29;;;;;;;13.68;3.65;;;13.20;99.90;;;;;;5076728;28;20051;-57
2022/06/19 05:54:55;;;;;;;13.15;2.85;;;13.20;99.90;;;;;;5082164;28;20044;-58
2022/06/19 05:57:22;;;;;;;9.27;3.25;;;13.30;99.90;;;;;;5063920;28;20491;-59
2022/06/19 05:59:50;;;;;;;18.65;4.30;;;13.40;99.90;;;;;;5085070;28;20040;-56
2022/06/19 06:02:21;;;;;;;14.75;2.92;;;13.40;99.90;;;;;;5075419;28;20051;-57
2022/06/19 06:04:48;;;;;;;11.55;1.98;;;13.50;99.90;;;;;;5070520;28;20136;-57
2022/06/19 06:07:15;;;;;;;12.10;2.70;;;13.50;99.90;;;;;;5073356;28;20051;-58
2022/06/19 06:09:43;;;;;;;9.98;2.38;;;13.60;99.90;;;;;;5076380;28;20058;-57
2022/06/19 06:12:10;;;;;;;7.22;2.15;;;13.70;99.90;;;;;;5082778;28;20131;-57
2022/06/19 06:14:37;;;;;;;11.80;2.67;;;13.70;99.90;;;;;;5078219;28;20471;-57
2022/06/19 06:17:04;;;;;;;17.58;2.30;;;13.70;99.90;;;;;;5072730;28;20048;-57
2022/06/19 06:19:32;;;;;;;11.48;2.80;;;13.80;99.90;;;;;;5077868;28;20084;-57
2022/06/19 06:22:02;;;;;;;22.20;2.35;;;13.80;99.90;;;;;;5081569;28;20499;-54
2022/06/19 06:24:29;;;;;;;13.23;2.50;;;13.70;99.90;;;;;;5076515;28;20135;-58
2022/06/19 06:26:57;;;;;;;12.07;2.30;;;13.80;99.90;;;;;;5074736;28;20044;-59
2022/06/19 06:29:25;;;;;;;20.23;3.70;;;13.80;99.90;;;;;;5079416;28;20083;-58
2022/06/19 06:31:52;;;;;;;12.93;3.00;;;13.80;99.90;;;;;;5079060;28;20048;-57
2022/06/19 06:34:19;;;;;;;11.45;2.15;;;13.80;99.90;;;;;;5074768;28;20076;-56
2022/06/19 06:36:45;;;;;;;10.85;2.35;;;13.90;99.90;;;;;;5082044;28;20097;-59
2022/06/19 06:39:12;;;;;;;9.93;1.95;;;13.90;99.90;;;;;;5073311;28;20072;-56
2022/06/19 06:41:39;;;;;;;7.38;1.98;;;13.80;99.90;;;;;;5080436;28;20617;-57
2022/06/19 06:44:06;;;;;;;9.02;2.15;;;13.90;99.90;;;;;;5072836;28;20511;-58
2022/06/19 06:46:38;;;;;;;8.52;2.08;;;13.90;99.90;;;;;;5076405;28;20048;-55
2022/06/19 06:49:05;;;;;;;10.02;2.60;;;14.00;99.90;;;;;;5081835;28;20045;-55
2022/06/19 06:51:32;;;;;;;12.20;2.88;;;14.00;99.90;;;;;;5084978;28;20131;-55
2022/06/19 06:53:59;;;;;;;9.18;2.10;;;14.00;99.90;;;;;;5077447;28;20051;-57
2022/06/19 06:56:33;;;;;;;7.03;2.13;;;14.10;99.90;;;;;;5110291;27;20076;-54
2022/06/19 06:59:00;;;;;;;15.77;3.83;;;14.20;99.90;;;;;;5074241;28;20058;-57
2022/06/19 07:01:29;;;;;;;9.00;2.40;;;14.20;99.90;;;;;;5082825;28;20094;-57
2022/06/19 07:03:56;;;;;;;9.52;2.60;;;14.20;99.90;;;;;;5078461;28;20385;-56
2022/06/19 07:06:25;;;;;;;13.30;3.00;;;14.30;99.90;;;;;;5080186;28;20058;-57
2022/06/19 07:08:52;;;;;;;14.10;2.30;;;14.30;99.90;;;;;;5084256;28;20044;-57
2022/06/19 07:11:24;;;;;;;19.52;2.67;;;14.30;99.90;;;;;;5072539;28;20048;-57
2022/06/19 07:13:51;;;;;;;13.00;2.00;;;14.40;99.90;;;;;;5068381;28;20048;-57
2022/06/19 07:16:18;;;;;;;12.10;2.55;;;14.40;99.90;;;;;;5080317;28;20079;-57
2022/06/19 07:18:45;;;;;;;18.63;4.07;;;14.40;99.90;;;;;;5083209;28;20135;-57
2022/06/19 07:21:12;;;;;;;14.60;3.50;;;14.40;99.90;;;;;;5079252;28;20470;-57
2022/06/19 07:23:39;;;;;;;15.23;2.30;;;14.40;99.90;;;;;;5078071;28;20048;-56
2022/06/19 07:26:11;;;;;;;10.65;2.63;;;14.50;99.90;;;;;;5082943;28;20484;-57
2022/06/19 07:28:38;;;;;;;8.02;2.05;;;14.60;99.90;;;;;;5080399;28;20047;-58
2022/06/19 07:31:06;;;;;;;14.38;2.28;;;14.60;99.90;;;;;;5076548;28;20087;-57
2022/06/19 07:33:34;;;;;;;10.98;2.25;;;14.60;99.90;;;;;;5088673;28;20048;-58
2022/06/19 07:36:01;;;;;;;15.02;2.88;;;14.60;99.90;;;;;;5087213;28;20048;-58
2022/06/19 07:38:28;;;;;;;10.80;2.17;;;14.60;99.90;;;;;;5086251;28;20090;-58
2022/06/19 07:40:54;;;;;;;9.52;2.15;;;14.60;99.90;;;;;;5080228;28;20067;-57
2022/06/19 07:43:22;;;;;;;12.15;2.20;;;14.70;99.90;;;;;;5085415;28;20076;-57
2022/06/19 07:45:49;;;;;;;14.52;3.55;;;14.80;99.90;;;;;;5082161;28;20120;-59
2022/06/19 07:51:01;;;;;;;9.02;2.03;;;14.90;99.90;;;;;;5077034;28;20454;-57
2022/06/19 07:53:28;;;;;;;9.93;1.83;;;14.80;99.90;;;;;;5075805;28;20044;-55
2022/06/19 07:55:55;;;;;;;18.50;2.38;;;14.80;99.90;;;;;;5083445;28;20106;-58
2022/06/19 07:58:21;;;;;;;7.80;1.83;;;14.90;99.90;;;;;;5081761;28;20041;-57
2022/06/19 08:00:48;;;;;;;11.55;2.97;;;15.00;99.90;;;;;;5085584;28;20079;-58
2022/06/19 08:03:15;;;;;;;12.63;2.03;;;15.10;99.90;;;;;;5079506;28;20049;-55
2022/06/19 08:05:43;;;;;;;12.20;1.88;;;15.20;99.90;;;;;;5081691;28;20067;-58
2022/06/19 08:08:24;;;;;;;8.77;1.90;;;15.20;99.90;;;;;;4732754;27;9999719;-58
2022/06/19 08:10:52;;;;;;;14.07;2.67;;;15.20;99.90;;;;;;5085323;28;20048;-57
2022/06/19 08:13:20;;;;;;;10.50;1.70;;;15.30;99.90;;;;;;5075639;28;20093;-57
2022/06/19 08:15:49;;;;;;;11.80;3.58;;;15.40;99.90;;;;;;5072494;28;20122;-57
2022/06/19 08:18:15;;;;;;;12.38;1.95;;;15.50;99.90;;;;;;5078091;28;20102;-58
2022/06/19 08:20:42;;;;;;;7.53;1.63;;;15.60;99.90;;;;;;5079570;28;20052;-59
2022/06/19 08:23:09;;;;;;;7.95;1.70;;;15.70;99.90;;;;;;5086625;28;20055;-57
2022/06/19 08:25:36;;;;;;;13.48;2.22;;;15.70;99.90;;;;;;5086108;28;20051;-58
2022/06/19 08:28:04;;;;;;;8.30;2.20;;;15.70;99.90;;;;;;5084358;28;20040;-58
2022/06/19 08:30:34;;;;;;;12.27;2.35;;;15.70;99.90;;;;;;5085098;28;20079;-58
2022/06/19 08:33:05;;;;;;;14.10;2.20;;;15.70;99.90;;;;;;5084195;28;20109;-58
2022/06/19 08:35:33;;;;;;;15.98;2.30;;;15.70;99.90;;;;;;5075916;28;20241;-58
2022/06/19 08:38:04;;;;;;;6.00;1.65;;;15.80;99.90;;;;;;5065039;28;20080;-59
2022/06/19 08:40:43;;;;;;;10.30;2.05;;;15.80;99.90;;;;;;5078737;28;20717;-57
2022/06/19 08:43:29;;;;;;;9.90;1.80;;;15.80;99.90;;;;;;5080167;28;20703;-60
2022/06/19 08:46:19;;;;;;;9.43;2.05;;;15.80;99.90;;;;;;5083402;28;20079;-57
2022/06/19 08:49:12;;;;;;;5.72;1.95;;;15.80;99.90;;;;;;5071291;28;20130;-59
2022/06/19 08:51:43;;;;;;;8.43;1.58;;;15.80;99.90;;;;;;5072586;28;20111;-59
2022/06/19 08:54:25;;;;;;;7.60;1.52;;;15.90;99.90;;;;;;5079832;28;20059;-60
2022/06/19 08:57:14;;;;;;;10.13;3.03;;;15.90;99.90;;;;;;5064184;28;20490;-59
2022/06/19 09:00:02;;;;;;;11.10;1.75;;;16.10;99.90;;;;;;5083502;28;20438;-58
2022/06/19 09:02:37;;;;;;;6.90;2.03;;;16.20;99.60;;;;;;5082336;28;20052;-56
2022/06/19 09:05:47;;;;;;;7.82;1.60;;;16.30;99.00;;;;;;5072998;28;20563;-56
2022/06/19 09:09:11;;;;;;;9.85;1.85;;;16.50;97.20;;;;;;5079500;28;20108;-54
2022/06/19 09:11:57;;;;;;;10.27;1.60;;;16.70;96.50;;;;;;4996131;28;20082;-55
2022/06/19 09:14:59;;;;;;;8.98;1.50;;;16.80;97.50;;;;;;4995055;28;20144;-57
2022/06/19 09:17:39;;;;;;;8.02;1.70;;;16.80;96.20;;;;;;5056236;28;20106;-57
2022/06/19 09:20:21;;;;;;;12.90;1.67;;;16.80;96.30;;;;;;5080079;28;20079;-56
2022/06/19 09:23:18;;;;;;;11.60;2.33;;;16.90;96.00;;;;;;5070761;28;20479;-55
2022/06/19 09:26:00;;;;;;;9.98;1.60;;;16.90;95.00;;;;;;5071660;28;20133;-57
2022/06/19 09:28:48;;;;;;;14.77;2.17;;;16.90;95.60;;;;;;5083811;28;20056;-55
2022/06/19 09:31:19;;;;;;;10.52;1.40;;;17.10;96.10;;;;;;5078857;28;20113;-55
2022/06/19 09:33:52;;;;;;;5.05;1.48;;;17.20;95.80;;;;;;5066263;28;20101;-55
2022/06/19 09:36:34;;;;;;;8.00;1.58;;;17.40;95.10;;;;;;5078852;28;20075;-56
2022/06/19 09:39:11;;;;;;;9.93;1.65;;;17.40;93.80;;;;;;5078579;28;20411;-56
2022/06/19 09:41:43;;;;;;;8.45;1.42;;;17.60;94.50;;;;;;5072902;28;20044;-54
2022/06/19 09:44:36;;;;;;;5.47;1.30;;;17.70;94.00;;;;;;5077298;28;20044;-56
2022/06/19 09:47:12;;;;;;;13.07;1.90;;;17.80;91.70;;;;;;5075300;28;20557;-54
2022/06/19 09:49:46;;;;;;;6.45;1.27;;;17.90;92.60;;;;;;5078502;28;20044;-55
2022/06/19 09:52:22;;;;;;;5.70;1.75;;;18.00;93.30;;;;;;5076208;28;20049;-55
2022/06/19 09:54:55;;;;;;;8.27;1.95;;;18.10;91.50;;;;;;5069042;28;20044;-55
2022/06/19 09:57:35;;;;;;;9.83;1.77;;;18.20;91.70;;;;;;5076011;28;20127;-58
2022/06/19 10:00:06;;;;;;;5.45;1.73;;;18.40;91.10;;;;;;5058252;28;20044;-56
2022/06/19 10:02:57;;;;;;;6.45;1.48;;;18.60;91.90;;;;;;5070824;28;20090;-57
2022/06/19 10:05:39;;;;;;;4.30;1.30;;;18.60;87.30;;;;;;5067370;28;20055;-57
2022/06/19 10:08:25;;;;;;;6.53;1.58;;;18.60;89.80;;;;;;5077033;28;20044;-55
2022/06/19 10:10:57;;;;;;;6.65;1.42;;;18.50;88.40;;;;;;5073088;28;20402;-56
2022/06/19 10:13:42;;;;;;;15.48;3.67;;;18.40;91.20;;;;;;5069586;28;20048;-55
2022/06/19 10:16:28;;;;;;;5.47;1.48;;;18.30;88.90;;;;;;5082411;28;20051;-57
2022/06/19 10:18:55;;;;;;;6.07;1.65;;;18.30;88.40;;;;;;5077668;28;20050;-54
2022/06/19 10:24:31;;;;;;;5.43;1.00;;;18.30;90.80;;;;;;5072202;28;20156;-58
2022/06/19 10:27:24;;;;;;;6.47;1.80;;;18.40;90.80;;;;;;5083238;28;20079;-58
2022/06/19 10:29:51;;;;;;;6.75;1.50;;;18.40;86.80;;;;;;5075210;28;20076;-59
2022/06/19 10:32:36;;;;;;;7.75;1.60;;;18.40;90.80;;;;;;5081283;28;20163;-57
2022/06/19 10:35:09;;;;;;;9.02;1.50;;;18.40;86.30;;;;;;5075457;28;20135;-57
2022/06/19 10:37:50;;;;;;;6.55;1.80;;;18.40;89.70;;;;;;5083371;28;20499;-60
2022/06/19 10:40:48;;;;;;;5.03;1.42;;;18.50;90.10;;;;;;5080905;28;20079;-58
2022/06/19 10:43:54;;;;;;;10.10;1.73;;;18.60;86.40;;;;;;5083314;28;20048;-58
2022/06/19 10:46:21;;;;;;;6.95;1.80;;;18.70;84.10;;;;;;5081677;28;20048;-59
2022/06/19 10:48:52;;;;;;;5.38;1.33;;;18.70;89.60;;;;;;5087907;28;20056;-55
2022/06/19 10:52:04;;;;;;;7.57;1.20;;;18.70;89.20;;;;;;5080899;28;20079;-58
2022/06/19 10:54:49;;;;;;;5.55;1.20;;;18.80;84.90;;;;;;5074115;28;20045;-57
2022/06/19 10:57:41;;;;;;;4.13;1.13;;;18.80;85.90;;;;;;5086459;28;20105;-55
2022/06/19 11:00:09;;;;;;;5.38;1.27;;;18.80;87.80;;;;;;5080015;28;20494;-57
2022/06/19 11:06:11;;;;;;;;;;;19.00;83.40;;;;;;5083609;28;20567;-58
2022/06/19 11:08:40;;;;;;;6.95;1.70;;;19.00;83.80;;;;;;5087942;28;19970;-57
2022/06/19 11:11:07;;;;;;;10.13;1.67;;;19.10;86.20;;;;;;5065577;28;20157;-58
2022/06/19 11:14:02;;;;;;;4.35;1.00;;;19.10;86.80;;;;;;5073847;28;20102;-58
2022/06/19 11:16:30;;;;;;;8.25;1.75;;;19.00;82.60;;;;;;5074474;28;20119;-58
2022/06/19 11:18:57;;;;;;;3.72;1.23;;;19.10;86.90;;;;;;5082756;28;20117;-59
2022/06/19 11:21:29;;;;;;;9.30;2.20;;;19.10;86.10;;;;;;5078397;28;20040;-59
2022/06/19 11:23:58;;;;;;;4.53;1.20;;;19.20;83.60;;;;;;5073549;28;20091;-58
2022/06/19 11:26:35;;;;;;;7.80;1.73;;;19.20;85.00;;;;;;5078911;28;20507;-59
2022/06/19 11:29:22;;;;;;;9.57;1.30;;;19.20;82.00;;;;;;5074763;28;20052;-60
2022/06/19 11:32:02;;;;;;;6.05;2.10;;;19.10;81.00;;;;;;5075106;28;20451;-59
2022/06/19 11:34:44;;;;;;;2.70;0.93;;;19.10;81.50;;;;;;5087053;28;20064;-57
2022/06/19 11:37:18;;;;;;;11.20;1.38;;;19.10;83.90;;;;;;5067248;28;20091;-57
2022/06/19 11:40:10;;;;;;;4.95;1.33;;;18.90;82.30;;;;;;5103027;27;20134;-56
2022/06/19 11:42:50;;;;;;;4.40;2.67;;;18.80;80.90;;;;;;5072919;28;20044;-56
2022/06/19 11:45:17;;;;;;;12.48;2.20;;;18.70;81.20;;;;;;5086325;28;20106;-57
2022/06/19 11:47:44;;;;;;;5.72;2.70;;;18.70;83.00;;;;;;5073506;28;20370;-54
2022/06/19 11:50:25;;;;;;;5.65;1.38;;;18.80;82.60;;;;;;5078812;28;20091;-57
2022/06/19 11:52:54;;;;;;;9.70;2.47;;;18.70;80.70;;;;;;5080316;28;20490;-57
2022/06/19 11:55:35;;;;;;;4.82;1.52;;;18.70;83.30;;;;;;5070862;28;20128;-56
2022/06/19 11:58:13;;;;;;;8.40;2.08;;;18.80;81.20;;;;;;5083300;28;20437;-57
2022/06/19 12:00:39;;;;;;;4.60;1.77;;;18.80;82.50;;;;;;5076958;28;20131;-54
2022/06/19 12:03:26;;;;;;;2.38;1.15;;;18.90;82.60;;;;;;5079705;28;20453;-55
2022/06/19 12:06:00;;;;;;;7.60;1.20;;;18.90;79.50;;;;;;5084163;28;20472;-58
2022/06/19 12:08:32;;;;;;;8.65;1.75;;;19.00;80.60;;;;;;5072887;28;20131;-58
2022/06/19 12:11:07;;;;;;;5.45;1.45;;;19.00;82.40;;;;;;5077029;28;20072;-55
2022/06/19 12:13:37;;;;;;;4.97;1.30;;;18.90;81.30;;;;;;5079139;28;20143;-59
2022/06/19 12:16:19;;;;;;;8.02;1.55;;;18.90;81.40;;;;;;5075489;28;20139;-58
2022/06/19 12:18:46;;;;;;;7.72;1.77;;;19.00;80.70;;;;;;5071015;28;20471;-59
2022/06/19 12:21:13;;;;;;;6.82;1.55;;;19.10;82.50;;;;;;5068668;28;20091;-58
2022/06/19 12:23:41;;;;;;;6.25;1.40;;;19.20;83.20;;;;;;5082767;28;20064;-57
2022/06/19 12:26:11;;;;;;;9.23;2.33;;;19.30;82.10;;;;;;5073464;28;20087;-58
2022/06/19 12:28:53;;;;;;;5.53;1.15;;;19.30;82.40;;;;;;5074676;28;20044;-58
2022/06/19 12:31:23;;;;;;;5.47;1.98;;;19.40;79.40;;;;;;5064450;28;20040;-58
2022/06/19 12:33:59;;;;;;;5.32;1.38;;;19.50;79.60;;;;;;5074570;28;20084;-57
2022/06/19 12:36:30;;;;;;;5.43;1.48;;;19.60;79.10;;;;;;5067460;28;20052;-58
2022/06/19 12:38:57;;;;;;;3.42;1.10;;;19.70;80.30;;;;;;5080589;28;20071;-58
2022/06/19 12:42:01;;;;;;;2.95;0.95;;;19.90;81.40;;;;;;5071097;28;20118;-58
2022/06/19 12:44:50;;;;;;;6.07;1.05;;;19.90;77.90;;;;;;5081238;28;20098;-57
2022/06/19 12:47:42;;;;;;;5.50;1.88;;;19.90;80.20;;;;;;5084312;28;20044;-57
2022/06/19 12:50:25;;;;;;;5.10;1.25;;;19.80;79.00;;;;;;5052370;28;20044;-58
2022/06/19 12:53:08;;;;;;;5.38;1.27;;;19.70;78.80;;;;;;5081741;28;20050;-59
2022/06/19 12:55:57;;;;;;;5.40;1.60;;;19.60;79.40;;;;;;5082538;28;20044;-58
2022/06/19 12:58:39;;;;;;;5.40;1.48;;;19.50;78.90;;;;;;5066426;28;20040;-60
2022/06/19 13:01:41;;;;;;;7.20;1.67;;;19.50;78.90;;;;;;5074875;28;20226;-59
2022/06/19 13:04:32;;;;;;;4.15;1.20;;;19.60;77.70;;;;;;5070336;28;20683;-60
2022/06/19 13:07:08;;;;;;;6.65;1.30;;;19.60;78.20;;;;;;5075534;28;20052;-60
2022/06/19 13:10:12;;;;;;;4.43;1.40;;;19.60;80.50;;;;;;5077879;28;20457;-59
2022/06/19 13:12:45;;;;;;;4.30;1.00;;;19.60;79.00;;;;;;5083868;28;20097;-59
2022/06/19 13:15:26;;;;;;;3.03;1.30;;;19.60;80.90;;;;;;5077417;28;20566;-58
2022/06/19 13:18:35;;;;;;;5.82;1.25;;;19.70;77.10;;;;;;5082179;28;20047;-59
2022/06/19 13:21:07;;;;;;;7.30;1.48;;;19.90;76.20;;;;;;5075795;28;20503;-59